createdAt,value
2022-11-30T00:01:38.816Z,25.77
2022-11-30T00:04:08.975Z,26.55
2022-11-30T00:06:41.381Z,25.63
2022-11-30T00:09:09.795Z,24.10
2022-11-30T00:11:38.261Z,26.38
2022-11-30T00:14:06.610Z,24.52
2022-11-30T00:16:34.942Z,25.80
2022-11-30T00:19:03.390Z,24.33
2022-11-30T00:21:31.908Z,25.35
2022-11-30T00:24:00.361Z,24.98
2022-11-30T00:26:29.738Z,24.20
2022-11-30T00:28:58.220Z,25.35
2022-11-30T00:31:26.685Z,24.20
2022-11-30T00:33:55.322Z,24.60
2022-11-30T00:36:24.125Z,24.77
2022-11-30T00:38:52.676Z,23.67
2022-11-30T00:41:23.722Z,24.42
2022-11-30T00:43:52.214Z,24.45
2022-11-30T00:46:20.640Z,23.60
2022-11-30T00:48:49.165Z,24.55
2022-11-30T00:51:18.632Z,24.23
2022-11-30T00:53:49.931Z,23.45
2022-11-30T00:56:18.319Z,25.45
2022-11-30T00:58:46.737Z,25.85
2022-11-30T01:01:15.176Z,25.42
2022-11-30T01:03:43.524Z,22.83
2022-11-30T01:06:11.832Z,25.65
2022-11-30T01:08:40.195Z,26.92
2022-11-30T01:11:31.927Z,26.95
2022-11-30T01:14:00.914Z,24.63
2022-11-30T01:16:32.339Z,24.42
2022-11-30T01:19:00.912Z,25.85
2022-11-30T01:21:29.915Z,25.75
2022-11-30T01:23:58.457Z,25.08
2022-11-30T01:26:26.876Z,22.77
2022-11-30T01:28:56.287Z,23.50
2022-11-30T01:31:25.066Z,23.25
2022-11-30T01:33:55.837Z,24.42
2022-11-30T01:38:59.703Z,24.60
2022-11-30T01:41:32.844Z,24.15
2022-11-30T01:44:07.199Z,25.27
2022-11-30T01:47:07.815Z,24.45
2022-11-30T01:49:48.641Z,25.52
2022-11-30T01:54:56.375Z,24.30
2022-11-30T01:57:35.714Z,27.85
2022-11-30T02:00:08.006Z,25.30
2022-11-30T02:02:55.765Z,25.50
2022-11-30T02:05:25.966Z,27.10
2022-11-30T02:07:55.155Z,26.52
2022-11-30T02:10:28.732Z,25.27
2022-11-30T02:13:13.799Z,25.52
2022-11-30T02:16:06.678Z,26.42
2022-11-30T02:18:54.440Z,27.27
2022-11-30T02:21:30.209Z,24.88
2022-11-30T02:24:37.067Z,24.50
2022-11-30T02:27:13.305Z,26.75
2022-11-30T02:29:47.201Z,24.45
2022-11-30T02:32:22.926Z,25.50
2022-11-30T02:34:53.244Z,25.42
2022-11-30T02:37:23.203Z,24.63
2022-11-30T02:39:51.583Z,23.65
2022-11-30T02:42:19.907Z,24.80
2022-11-30T02:44:51.313Z,22.25
2022-11-30T02:47:26.476Z,23.10
2022-11-30T02:50:22.851Z,24.65
2022-11-30T02:52:52.189Z,24.17
2022-11-30T02:55:20.773Z,24.70
2022-11-30T02:57:49.190Z,22.80
2022-11-30T03:00:18.029Z,24.55
2022-11-30T03:02:46.851Z,24.27
2022-11-30T03:05:15.405Z,24.88
2022-11-30T03:07:43.892Z,24.98
2022-11-30T03:10:12.443Z,24.70
2022-11-30T03:12:40.871Z,23.80
2022-11-30T03:15:10.553Z,26.85
2022-11-30T03:17:39.017Z,24.13
2022-11-30T03:20:08.605Z,25.85
2022-11-30T03:22:36.932Z,26.83
2022-11-30T03:25:05.700Z,25.75
2022-11-30T03:27:34.198Z,28.40
2022-11-30T03:30:03.368Z,27.77
2022-11-30T03:32:31.709Z,25.77
2022-11-30T03:35:00.032Z,25.95
2022-11-30T03:37:28.456Z,24.85
2022-11-30T03:39:58.490Z,26.42
2022-11-30T03:42:26.958Z,26.77
2022-11-30T03:44:55.338Z,25.15
2022-11-30T03:47:24.820Z,26.98
2022-11-30T03:49:53.532Z,26.30
2022-11-30T03:52:23.120Z,24.48
2022-11-30T03:54:51.562Z,24.05
2022-11-30T03:57:19.977Z,24.35
2022-11-30T03:59:49.099Z,23.52
2022-11-30T04:02:17.417Z,24.10
2022-11-30T04:04:46.089Z,23.55
2022-11-30T04:07:14.754Z,24.63
2022-11-30T04:09:43.244Z,24.38
2022-11-30T04:12:11.773Z,24.50
2022-11-30T04:14:41.037Z,25.23
2022-11-30T04:17:09.676Z,25.30
2022-11-30T04:19:38.039Z,24.73
2022-11-30T04:22:06.459Z,26.25
2022-11-30T04:24:35.771Z,28.40
2022-11-30T04:27:04.036Z,28.67
2022-11-30T04:29:32.634Z,27.63
2022-11-30T04:32:01.115Z,28.73
2022-11-30T04:34:29.532Z,24.85
2022-11-30T04:37:00.495Z,26.48
2022-11-30T04:39:29.146Z,27.15
2022-11-30T04:41:57.486Z,26.67
2022-11-30T04:44:25.888Z,27.65
2022-11-30T04:46:54.301Z,27.50
2022-11-30T04:49:22.813Z,26.23
2022-11-30T04:51:51.476Z,26.88
2022-11-30T04:54:19.772Z,27.67
2022-11-30T04:56:48.546Z,25.35
2022-11-30T04:59:16.910Z,24.45
2022-11-30T05:01:45.260Z,24.00
2022-11-30T05:04:13.717Z,24.55
2022-11-30T05:06:42.206Z,22.10
2022-11-30T05:09:10.832Z,23.35
2022-11-30T05:11:39.367Z,20.40
2022-11-30T05:14:07.800Z,21.08
2022-11-30T05:16:36.150Z,19.40
2022-11-30T05:19:04.537Z,18.08
2022-11-30T05:21:32.966Z,18.88
2022-11-30T05:24:02.536Z,18.63
2022-11-30T05:26:30.854Z,16.10
2022-11-30T05:28:59.417Z,16.70
2022-11-30T05:31:28.065Z,14.93
2022-11-30T05:33:57.426Z,14.70
2022-11-30T05:36:25.787Z,14.57
2022-11-30T05:38:54.134Z,14.88
2022-11-30T05:41:22.550Z,14.32
2022-11-30T05:43:51.102Z,13.55
2022-11-30T05:46:19.810Z,14.23
2022-11-30T05:48:49.164Z,13.63
2022-11-30T05:51:22.248Z,14.30
2022-11-30T05:53:55.998Z,13.90
2022-11-30T05:56:25.026Z,13.93
2022-11-30T05:58:53.579Z,13.10
2022-11-30T06:01:26.835Z,13.80
2022-11-30T06:03:56.485Z,13.23
2022-11-30T06:06:24.844Z,13.38
2022-11-30T06:08:54.260Z,12.73
2022-11-30T06:11:24.593Z,12.38
2022-11-30T06:13:53.041Z,14.18
2022-11-30T06:16:21.875Z,13.55
2022-11-30T06:18:50.281Z,15.65
2022-11-30T06:21:24.119Z,16.30
2022-11-30T06:23:54.162Z,14.88
2022-11-30T06:26:22.639Z,15.30
2022-11-30T06:28:50.942Z,16.15
2022-11-30T06:31:19.383Z,16.92
2022-11-30T06:33:47.969Z,16.65
2022-11-30T06:36:22.319Z,17.65
2022-11-30T06:38:51.553Z,17.25
2022-11-30T06:41:21.507Z,18.27
2022-11-30T06:43:49.861Z,17.50
2022-11-30T06:46:19.293Z,17.08
2022-11-30T06:48:50.954Z,18.80
2022-11-30T06:51:20.273Z,16.13
2022-11-30T06:53:49.065Z,17.67
2022-11-30T06:56:17.474Z,17.30
2022-11-30T06:58:45.922Z,18.75
2022-11-30T07:01:15.346Z,17.88
2022-11-30T07:03:44.041Z,17.40
2022-11-30T07:06:14.678Z,18.67
2022-11-30T07:08:43.829Z,19.30
2022-11-30T07:11:13.282Z,18.38
2022-11-30T07:13:41.961Z,18.85
2022-11-30T07:16:12.026Z,17.33
2022-11-30T07:18:40.685Z,17.90
2022-11-30T07:21:10.949Z,19.02
2022-11-30T07:23:58.588Z,18.65
2022-11-30T07:26:35.694Z,19.92
2022-11-30T07:29:05.330Z,19.10
2022-11-30T07:31:35.949Z,20.10
2022-11-30T07:34:09.486Z,20.23
2022-11-30T07:36:37.876Z,19.25
2022-11-30T07:39:06.410Z,19.42
2022-11-30T07:41:35.792Z,20.95
2022-11-30T07:44:05.814Z,21.77
2022-11-30T07:46:36.611Z,21.60
2022-11-30T07:51:35.551Z,21.08
2022-11-30T07:54:04.209Z,21.15
2022-11-30T07:56:32.580Z,21.63
2022-11-30T07:59:02.291Z,21.55
2022-11-30T08:01:32.518Z,21.65
2022-11-30T08:04:01.205Z,21.83
2022-11-30T08:06:31.845Z,21.05
2022-11-30T08:09:04.552Z,21.45
2022-11-30T08:11:36.016Z,20.67
2022-11-30T08:14:04.725Z,21.08
2022-11-30T08:16:38.139Z,20.30
2022-11-30T08:19:06.725Z,20.25
2022-11-30T08:21:35.147Z,20.27
2022-11-30T08:24:03.847Z,20.42
2022-11-30T08:26:35.844Z,20.25
2022-11-30T08:29:04.252Z,20.75
2022-11-30T08:31:35.642Z,20.67
2022-11-30T08:34:06.832Z,19.35
2022-11-30T08:36:35.585Z,19.88
2022-11-30T08:39:05.706Z,20.77
2022-11-30T08:41:35.576Z,19.42
2022-11-30T08:44:04.207Z,19.33
2022-11-30T08:46:51.413Z,19.70
2022-11-30T08:49:23.469Z,20.05
2022-11-30T08:54:48.896Z,19.95
2022-11-30T08:57:20.186Z,19.67
2022-11-30T08:59:49.870Z,19.38
2022-11-30T09:02:19.849Z,22.57
2022-11-30T09:05:09.368Z,21.75
2022-11-30T09:07:37.402Z,21.58
2022-11-30T09:10:06.399Z,21.73
2022-11-30T09:12:37.440Z,22.88
2022-11-30T09:15:07.776Z,22.15
2022-11-30T09:17:37.405Z,22.92
2022-11-30T09:20:07.775Z,24.40
2022-11-30T09:22:36.048Z,22.67
2022-11-30T09:25:04.983Z,22.60
2022-11-30T09:27:35.987Z,21.85
2022-11-30T09:30:04.885Z,22.60
2022-11-30T09:32:36.253Z,21.90
2022-11-30T09:35:08.596Z,22.15
2022-11-30T09:37:40.292Z,21.35
2022-11-30T09:40:09.343Z,21.92
2022-11-30T09:43:06.119Z,22.63
2022-11-30T09:45:36.466Z,23.83
2022-11-30T09:48:23.674Z,22.38
2022-11-30T09:50:54.973Z,23.35
2022-11-30T09:53:45.937Z,23.58
2022-11-30T09:56:26.767Z,23.08
2022-11-30T10:01:46.183Z,22.00
2022-11-30T10:04:27.710Z,22.60
2022-11-30T10:07:37.211Z,22.05
2022-11-30T10:10:32.768Z,23.50
2022-11-30T10:13:24.219Z,25.52
2022-11-30T10:16:04.302Z,24.88
2022-11-30T10:19:20.517Z,24.95
2022-11-30T10:22:08.210Z,26.70
2022-11-30T10:25:14.489Z,27.35
2022-11-30T10:28:38.520Z,25.98
2022-11-30T10:31:00.029Z,27.58
2022-11-30T10:33:38.715Z,31.33
2022-11-30T10:36:13.318Z,29.85
2022-11-30T10:39:02.358Z,29.00
2022-11-30T10:41:52.621Z,29.75
2022-11-30T10:44:40.174Z,29.13
2022-11-30T10:47:22.836Z,28.83
2022-11-30T10:49:54.658Z,27.58
2022-11-30T10:52:30.082Z,26.70
2022-11-30T10:55:04.223Z,28.20
2022-11-30T10:57:33.646Z,25.90
2022-11-30T11:00:05.724Z,27.65
2022-11-30T11:02:36.268Z,26.92
2022-11-30T11:05:30.993Z,29.30
2022-11-30T11:08:07.097Z,29.42
2022-11-30T11:10:45.252Z,28.90
2022-11-30T11:13:19.323Z,29.73
2022-11-30T11:16:00.867Z,28.90
2022-11-30T11:18:34.606Z,27.73
2022-11-30T11:21:06.111Z,28.05
2022-11-30T11:23:40.573Z,28.35
2022-11-30T11:26:25.945Z,27.95
2022-11-30T11:29:02.466Z,26.17
2022-11-30T11:31:50.775Z,27.30
2022-11-30T11:34:47.975Z,27.50
2022-11-30T11:37:28.812Z,27.05
2022-11-30T11:40:17.854Z,25.65
2022-11-30T11:42:54.344Z,25.60
2022-11-30T11:45:24.125Z,28.60
2022-11-30T11:48:00.796Z,20.33
2022-11-30T11:51:05.157Z,26.52
2022-11-30T11:53:23.094Z,27.05
2022-11-30T11:56:00.972Z,26.20
2022-11-30T11:58:49.331Z,27.45
2022-11-30T12:01:57.442Z,26.27
2022-11-30T12:04:27.570Z,26.02
2022-11-30T12:06:59.031Z,26.25
2022-11-30T12:09:39.631Z,26.73
2022-11-30T12:12:13.419Z,25.90
2022-11-30T12:14:41.852Z,27.92
2022-11-30T12:17:32.111Z,25.45
2022-11-30T12:20:16.755Z,26.60
2022-11-30T12:23:35.777Z,27.65
2022-11-30T12:26:26.252Z,25.23
2022-11-30T12:28:54.626Z,26.85
2022-11-30T12:31:41.825Z,27.60
2022-11-30T12:34:24.162Z,28.17
2022-11-30T12:37:08.780Z,27.00
2022-11-30T12:39:40.103Z,27.35
2022-11-30T12:42:21.235Z,27.70
2022-11-30T12:45:17.159Z,27.17
2022-11-30T12:48:08.970Z,27.45
2022-11-30T12:50:50.556Z,26.15
2022-11-30T12:53:27.818Z,27.55
2022-11-30T12:56:14.547Z,27.58
2022-11-30T12:59:01.092Z,27.92
2022-11-30T13:01:32.347Z,28.80
2022-11-30T13:04:44.044Z,27.35
2022-11-30T13:07:41.916Z,28.60
2022-11-30T13:10:39.083Z,27.67
2022-11-30T13:13:16.233Z,27.10
2022-11-30T13:15:46.514Z,28.45
2022-11-30T13:18:20.393Z,27.33
2022-11-30T13:21:06.354Z,27.40
2022-11-30T13:23:47.905Z,28.20
2022-11-30T13:26:55.635Z,27.83
2022-11-30T13:29:42.635Z,27.48
2022-11-30T13:32:48.618Z,28.20
2022-11-30T13:35:29.726Z,28.88
2022-11-30T13:38:35.056Z,29.70
2022-11-30T13:40:58.830Z,28.42
2022-11-30T13:43:30.762Z,29.92
2022-11-30T13:46:23.818Z,27.92
2022-11-30T13:49:37.439Z,30.75
2022-11-30T13:52:24.436Z,29.17
2022-11-30T13:54:58.383Z,31.90
2022-11-30T13:57:27.994Z,29.75
2022-11-30T13:59:58.383Z,31.92
2022-11-30T14:02:41.804Z,31.10
2022-11-30T14:05:16.593Z,31.95
2022-11-30T14:08:10.052Z,30.40
2022-11-30T14:10:44.491Z,30.10
2022-11-30T14:13:16.052Z,30.00
2022-11-30T14:15:44.881Z,30.60
2022-11-30T14:18:22.456Z,30.95
2022-11-30T14:21:17.601Z,30.80
2022-11-30T14:23:53.933Z,31.13
2022-11-30T14:26:29.094Z,30.67
2022-11-30T14:42:59.221Z,29.80
2022-11-30T14:45:33.110Z,27.63
2022-11-30T14:48:06.868Z,28.90
2022-11-30T14:50:36.192Z,28.52
2022-11-30T14:53:35.648Z,31.27
2022-11-30T14:56:22.745Z,30.75
2022-11-30T14:58:57.654Z,29.90
2022-11-30T15:01:32.556Z,32.25
2022-11-30T15:04:10.231Z,31.88
2022-11-30T15:06:40.253Z,31.67
2022-11-30T15:09:22.701Z,33.10
2022-11-30T15:11:52.806Z,31.88
2022-11-30T15:14:21.900Z,30.83
2022-11-30T15:16:57.828Z,32.00
2022-11-30T15:19:31.784Z,31.05
2022-11-30T15:22:03.254Z,32.58
2022-11-30T15:24:31.992Z,30.88
2022-11-30T15:27:15.156Z,30.55
2022-11-30T15:29:49.061Z,32.35
2022-11-30T15:32:23.090Z,30.35
2022-11-30T15:34:57.695Z,32.25
2022-11-30T15:37:35.854Z,32.38
2022-11-30T15:40:07.781Z,30.88
2022-11-30T15:42:43.671Z,32.30
2022-11-30T15:45:33.342Z,31.05
2022-11-30T15:48:05.595Z,31.58
2022-11-30T15:50:37.707Z,32.72
2022-11-30T15:53:30.166Z,31.17
2022-11-30T15:56:09.410Z,31.27
2022-11-30T15:59:01.355Z,30.00
2022-11-30T16:01:32.207Z,32.03
2022-11-30T16:04:06.088Z,33.50
2022-11-30T16:06:46.016Z,33.35
2022-11-30T16:09:32.381Z,32.00
2022-11-30T16:12:02.537Z,34.28
2022-11-30T16:14:31.743Z,32.30
2022-11-30T16:17:05.490Z,33.47
2022-11-30T16:19:37.117Z,31.88
2022-11-30T16:22:05.418Z,35.92
2022-11-30T16:24:33.842Z,33.17
2022-11-30T16:27:20.811Z,34.67
2022-11-30T16:29:52.607Z,33.97
2022-11-30T16:32:21.636Z,31.98
2022-11-30T16:34:50.005Z,32.85
2022-11-30T16:37:18.521Z,33.42
2022-11-30T16:39:47.204Z,34.38
2022-11-30T16:42:15.879Z,32.60
2022-11-30T16:44:44.681Z,33.97
2022-11-30T16:47:13.032Z,33.47
2022-11-30T16:49:41.429Z,33.53
2022-11-30T16:52:16.227Z,34.33
2022-11-30T16:54:44.594Z,36.08
2022-11-30T16:57:14.016Z,34.80
2022-11-30T16:59:42.496Z,35.28
2022-11-30T17:02:20.144Z,34.25
2022-11-30T17:04:49.765Z,54.88
2022-11-30T17:07:18.280Z,42.50
2022-11-30T17:09:46.785Z,36.72
2022-11-30T17:12:18.315Z,35.40
2022-11-30T17:14:46.971Z,36.10
2022-11-30T17:17:16.199Z,36.80
2022-11-30T17:19:44.587Z,34.95
2022-11-30T17:22:13.106Z,35.15
2022-11-30T17:24:41.518Z,35.05
2022-11-30T17:27:11.996Z,33.92
2022-11-30T17:29:43.092Z,36.53
2022-11-30T17:32:11.427Z,35.85
2022-11-30T17:34:39.928Z,35.88
2022-11-30T17:37:08.746Z,34.92
2022-11-30T17:39:37.038Z,35.80
2022-11-30T17:42:05.634Z,37.08
2022-11-30T17:44:35.136Z,36.13
2022-11-30T17:47:03.425Z,35.08
2022-11-30T17:49:33.030Z,37.00
2022-11-30T17:52:02.264Z,36.58
2022-11-30T17:54:30.886Z,36.80
2022-11-30T17:56:59.989Z,35.75
2022-11-30T17:59:28.448Z,38.33
2022-11-30T18:01:57.625Z,36.22
2022-11-30T18:04:26.060Z,38.50
2022-11-30T18:06:54.532Z,36.63
2022-11-30T18:09:24.523Z,35.72
2022-11-30T18:11:52.834Z,34.65
2022-11-30T18:14:21.345Z,37.20
2022-11-30T18:16:49.785Z,37.85
2022-11-30T18:19:18.389Z,38.55
2022-11-30T18:21:47.629Z,36.20
2022-11-30T18:24:17.276Z,36.10
2022-11-30T18:26:49.758Z,39.53
2022-11-30T18:29:18.122Z,36.80
2022-11-30T18:31:48.776Z,37.35
2022-11-30T18:34:17.430Z,35.30
2022-11-30T18:36:46.163Z,36.65
2022-11-30T18:39:14.415Z,36.97
2022-11-30T18:41:42.775Z,37.25
2022-11-30T18:44:11.409Z,65.47
2022-11-30T18:46:39.914Z,41.90
2022-11-30T18:49:08.458Z,37.83
2022-11-30T18:51:36.970Z,37.47
2022-11-30T18:54:08.068Z,35.22
2022-11-30T18:56:38.973Z,37.95
2022-11-30T18:59:12.307Z,39.38
2022-11-30T19:01:41.304Z,35.25
2022-11-30T19:04:11.512Z,33.97
2022-11-30T19:06:41.620Z,38.08
2022-11-30T19:09:14.766Z,38.47
2022-11-30T19:11:43.615Z,34.10
2022-11-30T19:14:14.158Z,39.15
2022-11-30T19:16:43.249Z,39.90
2022-11-30T19:19:14.199Z,37.35
2022-11-30T19:21:44.809Z,39.33
2022-11-30T19:24:14.461Z,35.30
2022-11-30T19:26:42.962Z,39.58
2022-11-30T19:29:12.139Z,37.60
2022-11-30T19:31:41.210Z,40.75
2022-11-30T19:34:12.892Z,37.00
2022-11-30T19:36:43.635Z,37.28
2022-11-30T19:39:12.221Z,37.33
2022-11-30T19:41:40.587Z,37.95
2022-11-30T19:44:12.930Z,37.65
2022-11-30T19:46:41.870Z,37.88
2022-11-30T19:49:11.038Z,41.30
2022-11-30T19:51:39.477Z,38.28
2022-11-30T19:54:07.895Z,40.97
2022-11-30T19:56:37.347Z,39.70
2022-11-30T19:59:06.274Z,41.58
2022-11-30T20:01:36.224Z,40.80
2022-11-30T20:04:04.896Z,40.37
2022-11-30T20:06:36.217Z,39.42
2022-11-30T20:09:06.946Z,39.92
2022-11-30T20:11:36.897Z,39.53
2022-11-30T20:14:05.274Z,38.83
2022-11-30T20:16:33.722Z,40.35
2022-11-30T20:19:03.066Z,40.78
2022-11-30T20:21:33.894Z,40.45
2022-11-30T20:24:06.207Z,41.03
2022-11-30T20:26:38.318Z,38.70
2022-11-30T20:29:11.136Z,40.17
2022-11-30T20:31:40.293Z,38.95
2022-11-30T20:34:10.525Z,38.88
2022-11-30T20:36:39.099Z,38.28
2022-11-30T20:39:07.772Z,42.40
2022-11-30T20:41:36.218Z,40.70
2022-11-30T20:44:05.995Z,41.78
2022-11-30T20:46:35.855Z,39.10
2022-11-30T20:49:13.660Z,40.25
2022-11-30T20:51:42.099Z,42.17
2022-11-30T20:54:12.162Z,40.08
2022-11-30T20:56:40.873Z,30.77
2022-11-30T20:59:14.730Z,40.00
2022-11-30T21:01:45.379Z,40.60
2022-11-30T21:04:17.014Z,38.95
2022-11-30T21:06:49.149Z,40.95
2022-11-30T21:09:20.837Z,39.80
2022-11-30T21:11:49.502Z,38.75
2022-11-30T21:14:18.189Z,38.60
2022-11-30T21:16:46.464Z,38.65
2022-11-30T21:19:17.603Z,40.17
2022-11-30T21:21:46.461Z,38.50
2022-11-30T21:24:15.425Z,38.22
2022-11-30T21:26:43.977Z,42.85
2022-11-30T21:29:15.431Z,37.67
2022-11-30T21:31:45.112Z,39.60
2022-11-30T21:34:14.084Z,40.17
2022-11-30T21:36:43.046Z,37.97
2022-11-30T21:39:15.360Z,39.00
2022-11-30T21:41:44.283Z,40.50
2022-11-30T21:44:14.560Z,37.53
2022-11-30T21:46:45.858Z,37.83
2022-11-30T21:49:15.574Z,38.55
2022-11-30T21:51:44.202Z,36.53
2022-11-30T21:54:13.638Z,36.47
2022-11-30T21:56:44.762Z,38.05
2022-11-30T21:59:14.755Z,38.67
2022-11-30T22:01:44.988Z,37.13
2022-11-30T22:04:14.548Z,38.08
2022-11-30T22:06:43.631Z,37.70
2022-11-30T22:09:15.354Z,38.67
2022-11-30T22:11:45.703Z,36.75
2022-11-30T22:14:16.321Z,38.05
2022-11-30T22:16:45.440Z,36.65
2022-11-30T22:19:14.449Z,35.85
2022-11-30T22:21:49.460Z,36.95
2022-11-30T22:24:19.074Z,40.17
2022-11-30T22:26:49.237Z,36.22
2022-11-30T22:29:22.963Z,39.03
2022-11-30T22:31:54.130Z,35.88
2022-11-30T22:34:23.416Z,38.88
2022-11-30T22:36:51.886Z,40.35
2022-11-30T22:39:22.126Z,39.78
2022-11-30T22:41:55.734Z,41.90
2022-11-30T22:44:26.571Z,38.28
2022-11-30T22:46:55.716Z,36.72
2022-11-30T22:49:24.599Z,39.47
2022-11-30T22:51:53.442Z,36.70
2022-11-30T22:54:22.295Z,38.97
2022-11-30T22:56:51.080Z,38.50
2022-11-30T22:59:19.431Z,40.13
2022-11-30T23:01:50.678Z,38.13
2022-11-30T23:04:23.302Z,40.97
2022-11-30T23:06:54.780Z,38.88
2022-11-30T23:09:24.295Z,41.83
2022-11-30T23:11:52.825Z,41.10
2022-11-30T23:14:21.392Z,40.10
2022-11-30T23:16:49.840Z,43.88
2022-11-30T23:19:18.632Z,40.72
2022-11-30T23:21:50.154Z,40.72
2022-11-30T23:24:21.039Z,42.50
2022-11-30T23:29:19.080Z,42.13
2022-11-30T23:31:54.334Z,44.47
2022-11-30T23:34:22.801Z,39.47
2022-11-30T23:36:51.679Z,39.72
2022-11-30T23:39:23.120Z,40.78
2022-11-30T23:41:51.554Z,39.38
2022-11-30T23:44:23.622Z,40.10
2022-11-30T23:47:00.656Z,40.65
2022-11-30T23:49:29.439Z,40.28
2022-11-30T23:51:58.902Z,40.47
2022-11-30T23:54:27.646Z,40.17
2022-11-30T23:56:56.928Z,38.65
2022-11-30T23:59:25.266Z,40.63
